createdAt,value
2023-07-08T00:00:17.195Z,98230.34
2023-07-08T00:02:24.153Z,98227.22
2023-07-08T00:04:27.066Z,98216.09
2023-07-08T00:06:30.483Z,98221.56
2023-07-08T00:08:33.537Z,98220.91
2023-07-08T00:10:36.673Z,98219.41
2023-07-08T00:12:39.853Z,98217.28
2023-07-08T00:14:44.419Z,98213.97
2023-07-08T00:16:47.540Z,98210.84
2023-07-08T00:18:50.770Z,98203.03
2023-07-08T00:20:53.923Z,98198.88
2023-07-08T00:22:58.024Z,98195.75
2023-07-08T00:25:01.076Z,98191.59
2023-07-08T00:27:04.117Z,98190.06
2023-07-08T00:29:10.732Z,98184.94
2023-07-08T00:31:16.069Z,98182.47
2023-07-08T00:33:19.144Z,98190.75
2023-07-08T00:35:24.526Z,98191.09
2023-07-08T00:37:30.798Z,98188.44
2023-07-08T00:39:33.871Z,98194.75
2023-07-08T00:41:41.132Z,98198.56
2023-07-08T00:43:48.866Z,98189.94
2023-07-08T00:46:02.607Z,98191.78
2023-07-08T00:48:14.155Z,98197.25
2023-07-08T00:50:17.485Z,98195.75
2023-07-08T00:52:26.024Z,98195.91
2023-07-08T00:54:30.075Z,98202.38
2023-07-08T00:56:35.618Z,98212.34
2023-07-08T00:58:41.434Z,98206.22
2023-07-08T01:00:44.567Z,98210.84
2023-07-08T01:02:56.518Z,98216.66
2023-07-08T01:05:06.216Z,98218.97
2023-07-08T01:07:09.371Z,98221.31
2023-07-08T01:09:13.770Z,98213.84
2023-07-08T01:11:16.809Z,98223.81
2023-07-08T01:13:19.917Z,98219.00
2023-07-08T01:15:26.248Z,98217.81
2023-07-08T01:17:33.508Z,98211.19
2023-07-08T01:19:37.157Z,98202.91
2023-07-08T01:21:48.452Z,98213.00
2023-07-08T01:23:51.441Z,98209.84
2023-07-08T01:25:54.530Z,98216.16
2023-07-08T01:27:59.258Z,98214.78
2023-07-08T01:30:05.926Z,98208.81
2023-07-08T01:32:11.845Z,98209.16
2023-07-08T01:34:14.937Z,98204.16
2023-07-08T01:36:18.033Z,98199.03
2023-07-08T01:38:26.986Z,98210.63
2023-07-08T01:40:31.875Z,98206.50
2023-07-08T01:42:35.099Z,98213.75
2023-07-08T01:44:38.845Z,98218.41
2023-07-08T01:46:41.920Z,98208.94
2023-07-08T01:48:49.097Z,98209.97
2023-07-08T01:50:58.256Z,98209.44
2023-07-08T01:53:02.750Z,98212.06
2023-07-08T01:55:07.873Z,98209.75
2023-07-08T01:57:11.009Z,98208.13
2023-07-08T01:59:14.137Z,98195.69
2023-07-08T02:01:17.324Z,98201.97
2023-07-08T02:03:21.930Z,98196.81
2023-07-08T02:05:25.392Z,98199.63
2023-07-08T02:07:28.544Z,98199.47
2023-07-08T02:09:31.636Z,98199.44
2023-07-08T02:11:36.146Z,98200.25
2023-07-08T02:13:39.317Z,98194.09
2023-07-08T02:15:42.429Z,98204.34
2023-07-08T02:17:45.571Z,98195.56
2023-07-08T02:19:48.665Z,98197.38
2023-07-08T02:21:53.925Z,98189.44
2023-07-08T02:23:57.000Z,98194.06
2023-07-08T02:26:00.051Z,98186.28
2023-07-08T02:28:04.911Z,98181.16
2023-07-08T02:30:09.234Z,98187.41
2023-07-08T02:32:12.346Z,98196.22
2023-07-08T02:34:16.917Z,98196.22
2023-07-08T02:36:20.212Z,98204.31
2023-07-08T02:38:23.302Z,98203.47
2023-07-08T02:40:27.331Z,98206.47
2023-07-08T02:42:31.099Z,98210.22
2023-07-08T02:44:35.508Z,98204.25
2023-07-08T02:46:38.603Z,98198.13
2023-07-08T02:48:42.502Z,98199.44
2023-07-08T02:50:45.577Z,98200.56
2023-07-08T02:52:48.583Z,98200.88
2023-07-08T02:54:51.596Z,98204.50
2023-07-08T02:56:54.653Z,98209.16
2023-07-08T02:58:57.974Z,98220.06
2023-07-08T03:01:02.919Z,98214.91
2023-07-08T03:03:06.892Z,98222.19
2023-07-08T03:05:11.188Z,98218.84
2023-07-08T03:07:15.974Z,98218.34
2023-07-08T03:09:19.513Z,98228.13
2023-07-08T03:11:23.238Z,98229.91
2023-07-08T03:13:26.339Z,98224.78
2023-07-08T03:15:30.740Z,98237.34
2023-07-08T03:17:35.242Z,98231.53
2023-07-08T03:19:38.480Z,98244.91
2023-07-08T03:21:41.583Z,98239.78
2023-07-08T03:23:44.776Z,98249.56
2023-07-08T03:25:50.039Z,98245.22
2023-07-08T03:27:53.873Z,98248.03
2023-07-08T03:29:58.445Z,98248.34
2023-07-08T03:32:01.543Z,98251.16
2023-07-08T03:34:05.958Z,98249.47
2023-07-08T03:36:13.580Z,98251.31
2023-07-08T03:38:16.665Z,98255.94
2023-07-08T03:40:18.868Z,98261.53
2023-07-08T03:42:22.298Z,98263.47
2023-07-08T03:44:25.807Z,98268.91
2023-07-08T03:46:29.836Z,98275.22
2023-07-08T03:48:32.939Z,98270.75
2023-07-08T03:50:38.689Z,98269.06
2023-07-08T03:52:41.740Z,98267.44
2023-07-08T03:54:47.809Z,98261.44
2023-07-08T03:56:51.025Z,98259.09
2023-07-08T03:58:54.442Z,98268.03
2023-07-08T04:00:58.801Z,98256.75
2023-07-08T04:03:02.298Z,98260.25
2023-07-08T04:05:05.799Z,98262.75
2023-07-08T04:07:10.254Z,98269.53
2023-07-08T04:09:13.454Z,98267.44
2023-07-08T04:11:20.575Z,98268.09
2023-07-08T04:13:23.999Z,98267.13
2023-07-08T04:15:29.487Z,98267.13
2023-07-08T04:17:32.703Z,98279.34
2023-07-08T04:19:36.831Z,98270.28
2023-07-08T04:21:39.046Z,98273.75
2023-07-08T04:23:43.683Z,98266.50
2023-07-08T04:25:47.037Z,98263.88
2023-07-08T04:27:50.094Z,98286.00
2023-07-08T04:29:53.145Z,98270.13
2023-07-08T04:31:56.241Z,98270.94
2023-07-08T04:33:59.331Z,98271.81
2023-07-08T04:36:02.511Z,98275.94
2023-07-08T04:38:10.299Z,98279.28
2023-07-08T04:40:19.702Z,98275.31
2023-07-08T04:42:22.961Z,98273.38
2023-07-08T04:44:26.132Z,98280.31
2023-07-08T04:46:38.311Z,98271.38
2023-07-08T04:48:41.557Z,98274.69
2023-07-08T04:50:46.560Z,98281.34
2023-07-08T04:52:50.916Z,98285.34
2023-07-08T04:54:54.170Z,98279.72
2023-07-08T04:56:58.662Z,98277.94
2023-07-08T04:59:02.728Z,98267.53
2023-07-08T05:01:06.017Z,98269.41
2023-07-08T05:03:09.185Z,98255.53
2023-07-08T05:05:11.274Z,98258.25
2023-07-08T05:07:14.375Z,98260.94
2023-07-08T05:09:18.057Z,98264.31
2023-07-08T05:11:21.156Z,98263.03
2023-07-08T05:13:25.848Z,98269.38
2023-07-08T05:15:29.059Z,98264.59
2023-07-08T05:17:32.162Z,98267.78
2023-07-08T05:19:35.203Z,98264.84
2023-07-08T05:21:39.495Z,98260.59
2023-07-08T05:23:42.886Z,98260.94
2023-07-08T05:25:45.980Z,98259.09
2023-07-08T05:27:49.557Z,98257.78
2023-07-08T05:29:54.175Z,98255.97
2023-07-08T05:31:57.764Z,98264.25
2023-07-08T05:34:00.790Z,98259.59
2023-07-08T05:36:03.998Z,98270.69
2023-07-08T05:38:07.070Z,98274.59
2023-07-08T05:40:11.065Z,98277.88
2023-07-08T05:42:14.182Z,98277.31
2023-07-08T05:44:17.168Z,98274.53
2023-07-08T05:46:21.694Z,98283.19
2023-07-08T05:48:24.733Z,98277.38
2023-07-08T05:50:27.825Z,98277.78
2023-07-08T05:52:30.995Z,98270.59
2023-07-08T05:54:34.072Z,98288.44
2023-07-08T05:56:37.262Z,98290.81
2023-07-08T05:58:40.375Z,98293.16
2023-07-08T06:00:43.607Z,98298.94
2023-07-08T06:02:48.190Z,98296.03
2023-07-08T06:04:51.345Z,98306.81
2023-07-08T06:06:54.581Z,98318.56
2023-07-08T06:08:57.641Z,98338.69
2023-07-08T06:11:01.071Z,98354.88
2023-07-08T06:13:04.336Z,98349.63
2023-07-08T06:15:08.624Z,98348.91
2023-07-08T06:17:11.787Z,98331.91
2023-07-08T06:19:18.195Z,98321.44
2023-07-08T06:21:21.357Z,98337.19
2023-07-08T06:23:23.991Z,98345.50
2023-07-08T06:25:27.082Z,98358.41
2023-07-08T06:27:30.206Z,98359.47
2023-07-08T06:29:33.420Z,98357.16
2023-07-08T06:31:36.750Z,98357.94
2023-07-08T06:33:39.779Z,98348.69
2023-07-08T06:35:44.806Z,98350.63
2023-07-08T06:37:47.849Z,98358.13
2023-07-08T06:39:50.928Z,98366.25
2023-07-08T06:41:53.062Z,98365.47
2023-07-08T06:44:01.532Z,98366.09
2023-07-08T06:46:08.487Z,98371.84
2023-07-08T06:48:11.669Z,98375.13
2023-07-08T06:50:14.782Z,98379.34
2023-07-08T06:52:19.327Z,98367.31
2023-07-08T06:54:22.471Z,98376.06
2023-07-08T06:56:25.696Z,98377.59
2023-07-08T06:58:28.703Z,98388.25
2023-07-08T07:00:31.942Z,98387.69
2023-07-08T07:02:35.599Z,98386.06
2023-07-08T07:04:38.939Z,98384.28
2023-07-08T07:06:41.990Z,98388.66
2023-07-08T07:08:46.576Z,98380.38
2023-07-08T07:10:49.707Z,98382.03
2023-07-08T07:12:52.737Z,98388.22
2023-07-08T07:14:56.028Z,98394.66
2023-07-08T07:17:08.422Z,98393.69
2023-07-08T07:19:12.430Z,98387.47
2023-07-08T07:21:15.617Z,98387.84
2023-07-08T07:23:18.837Z,98390.16
2023-07-08T07:25:23.472Z,98391.25
2023-07-08T07:27:26.568Z,98384.53
2023-07-08T07:29:29.836Z,98380.50
2023-07-08T07:31:33.570Z,98379.63
2023-07-08T07:33:36.809Z,98377.03
2023-07-08T07:35:44.459Z,98379.81
2023-07-08T07:37:47.642Z,98375.81
2023-07-08T07:39:50.818Z,98375.84
2023-07-08T07:41:55.223Z,98383.59
2023-07-08T07:43:58.274Z,98391.47
2023-07-08T07:46:01.722Z,98385.94
2023-07-08T07:48:06.138Z,98387.28
2023-07-08T07:50:10.684Z,98391.19
2023-07-08T07:52:13.948Z,98393.28
2023-07-08T07:54:17.121Z,98389.16
2023-07-08T07:56:20.166Z,98398.34
2023-07-08T07:58:27.686Z,98389.28
2023-07-08T08:00:31.210Z,98395.25
2023-07-08T08:02:34.375Z,98398.28
2023-07-08T08:04:37.579Z,98394.44
2023-07-08T08:06:40.898Z,98398.53
2023-07-08T08:08:43.995Z,98396.94
2023-07-08T08:10:47.329Z,98391.91
2023-07-08T08:12:53.984Z,98395.13
2023-07-08T08:14:58.827Z,98388.53
2023-07-08T08:17:02.080Z,98398.38
2023-07-08T08:19:07.923Z,98396.28
2023-07-08T08:21:12.036Z,98405.94
2023-07-08T08:23:15.153Z,98401.94
2023-07-08T08:25:22.200Z,98392.56
2023-07-08T08:27:25.304Z,98395.88
2023-07-08T08:29:28.612Z,98410.38
2023-07-08T08:31:33.435Z,98405.63
2023-07-08T08:33:36.472Z,98414.56
2023-07-08T08:35:39.540Z,98412.19
2023-07-08T08:37:42.682Z,98415.81
2023-07-08T08:39:45.954Z,98419.75
2023-07-08T08:41:49.245Z,98418.88
2023-07-08T08:43:52.966Z,98420.94
2023-07-08T08:46:00.362Z,98413.56
2023-07-08T08:48:08.048Z,98422.84
2023-07-08T08:50:25.886Z,98418.41
2023-07-08T08:52:29.302Z,98417.50
2023-07-08T08:54:32.991Z,98419.34
2023-07-08T08:56:41.227Z,98417.25
2023-07-08T08:58:47.081Z,98417.69
2023-07-08T09:00:56.481Z,98415.69
2023-07-08T09:03:03.575Z,98416.50
2023-07-08T09:05:10.989Z,98421.38
2023-07-08T09:07:16.960Z,98408.09
2023-07-08T09:09:35.304Z,98409.97
2023-07-08T09:11:43.087Z,98410.31
2023-07-08T09:13:46.402Z,98406.97
2023-07-08T09:15:50.972Z,98412.25
2023-07-08T09:17:57.576Z,98407.91
2023-07-08T09:20:08.114Z,98401.84
2023-07-08T09:22:17.038Z,98404.06
2023-07-08T09:24:23.079Z,98398.84
2023-07-08T09:26:26.866Z,98397.06
2023-07-08T09:28:39.750Z,98392.06
2023-07-08T09:30:42.911Z,98395.88
2023-07-08T09:32:46.125Z,98401.13
2023-07-08T09:34:52.453Z,98401.25
2023-07-08T09:36:55.568Z,98393.78
2023-07-08T09:38:59.999Z,98398.16
2023-07-08T09:41:03.357Z,98403.34
2023-07-08T09:43:20.157Z,98410.31
2023-07-08T09:45:25.270Z,98410.81
2023-07-08T09:47:32.006Z,98407.44
2023-07-08T09:49:37.173Z,98416.81
2023-07-08T09:51:39.481Z,98412.22
2023-07-08T09:53:42.669Z,98404.75
2023-07-08T09:55:48.251Z,98406.13
2023-07-08T09:57:52.933Z,98401.97
2023-07-08T09:59:59.677Z,98406.78
2023-07-08T10:02:04.799Z,98407.84
2023-07-08T10:04:08.956Z,98413.94
2023-07-08T10:06:19.529Z,98407.13
2023-07-08T10:08:24.378Z,98404.84
2023-07-08T10:10:31.368Z,98401.03
2023-07-08T10:12:37.528Z,98398.09
2023-07-08T10:14:45.398Z,98399.22
2023-07-08T10:16:48.703Z,98405.56
2023-07-08T10:18:51.891Z,98393.31
2023-07-08T10:21:00.525Z,98389.91
2023-07-08T10:23:11.062Z,98384.25
2023-07-08T10:25:22.646Z,98375.31
2023-07-08T10:27:30.611Z,98390.44
2023-07-08T10:29:40.893Z,98390.66
2023-07-08T10:31:49.350Z,98389.06
2023-07-08T10:34:16.636Z,98392.25
2023-07-08T10:36:26.065Z,98394.00
2023-07-08T10:38:41.673Z,98392.16
2023-07-08T10:40:50.238Z,98393.06
2023-07-08T10:43:02.193Z,98386.25
2023-07-08T10:45:12.398Z,98382.31
2023-07-08T10:47:29.815Z,98392.34
2023-07-08T10:49:52.901Z,98391.50
2023-07-08T10:52:06.382Z,98385.28
2023-07-08T10:54:26.931Z,98385.28
2023-07-08T10:56:38.397Z,98384.78
2023-07-08T10:58:55.316Z,98386.44
2023-07-08T11:01:14.839Z,98378.31
2023-07-08T11:03:40.822Z,98376.91
2023-07-08T11:05:47.073Z,98367.03
2023-07-08T11:07:53.415Z,98365.66
2023-07-08T11:09:59.424Z,98371.91
2023-07-08T11:12:05.539Z,98364.00
2023-07-08T11:14:12.462Z,98369.25
2023-07-08T11:16:22.022Z,98360.63
2023-07-08T11:18:30.437Z,98360.97
2023-07-08T11:20:39.557Z,98366.41
2023-07-08T11:22:47.468Z,98369.66
2023-07-08T11:24:52.400Z,98367.06
2023-07-08T11:26:58.678Z,98374.75
2023-07-08T11:29:03.034Z,98366.06
2023-07-08T11:31:07.105Z,98369.03
2023-07-08T11:33:15.633Z,98368.28
2023-07-08T11:35:21.897Z,98368.59
2023-07-08T11:37:26.790Z,98361.88
2023-07-08T11:39:34.844Z,98370.50
2023-07-08T11:41:38.041Z,98355.22
2023-07-08T11:43:47.460Z,98357.03
2023-07-08T11:45:51.091Z,98348.72
2023-07-08T11:47:55.332Z,98355.63
2023-07-08T11:49:59.896Z,98351.03
2023-07-08T11:52:04.660Z,98354.22
2023-07-08T11:54:15.354Z,98352.69
2023-07-08T11:56:24.217Z,98349.72
2023-07-08T11:58:29.260Z,98352.19
2023-07-08T12:00:34.687Z,98352.44
2023-07-08T12:02:51.030Z,98342.56
2023-07-08T12:04:59.933Z,98345.69
2023-07-08T12:07:24.409Z,98335.84
2023-07-08T12:09:31.343Z,98342.31
2023-07-08T12:11:36.560Z,98337.34
2023-07-08T12:13:41.135Z,98336.66
2023-07-08T12:15:43.366Z,98347.81
2023-07-08T12:17:47.668Z,98340.59
2023-07-08T12:19:50.601Z,98336.84
2023-07-08T12:21:55.315Z,98342.41
2023-07-08T12:24:05.425Z,98332.03
2023-07-08T12:26:10.882Z,98318.25
2023-07-08T12:28:14.735Z,98327.72
2023-07-08T12:30:18.623Z,98322.56
2023-07-08T12:32:26.595Z,98323.16
2023-07-08T12:34:30.813Z,98323.78
2023-07-08T12:36:35.921Z,98326.84
2023-07-08T12:38:42.270Z,98324.16
2023-07-08T12:40:45.805Z,98319.13
2023-07-08T12:42:49.126Z,98322.22
2023-07-08T12:44:52.211Z,98321.81
2023-07-08T12:46:56.447Z,98323.34
2023-07-08T12:48:59.618Z,98328.03
2023-07-08T12:51:02.960Z,98322.41
2023-07-08T12:53:10.564Z,98321.16
2023-07-08T12:55:16.001Z,98320.00
2023-07-08T12:57:19.865Z,98318.84
2023-07-08T12:59:25.207Z,98316.38
2023-07-08T13:01:32.177Z,98310.72
2023-07-08T13:03:37.971Z,98322.72
2023-07-08T13:05:42.257Z,98322.56
2023-07-08T13:07:45.836Z,98321.03
2023-07-08T13:09:50.640Z,98317.16
2023-07-08T13:11:57.083Z,98321.75
2023-07-08T13:14:03.564Z,98325.03
2023-07-08T13:16:07.194Z,98320.56
2023-07-08T13:18:16.833Z,98323.53
2023-07-08T13:20:20.925Z,98317.63
2023-07-08T13:22:24.826Z,98310.91
2023-07-08T13:24:32.531Z,98315.38
2023-07-08T13:26:35.634Z,98308.88
2023-07-08T13:28:41.468Z,98315.84
2023-07-08T13:30:53.696Z,98313.25
2023-07-08T13:32:57.783Z,98310.56
2023-07-08T13:35:00.979Z,98314.66
2023-07-08T13:37:04.147Z,98312.28
2023-07-08T13:39:08.582Z,98310.06
2023-07-08T13:41:13.563Z,98308.31
2023-07-08T13:43:16.825Z,98303.84
2023-07-08T13:45:25.584Z,98300.81
2023-07-08T13:47:30.550Z,98301.31
2023-07-08T13:49:42.398Z,98305.75
2023-07-08T13:51:46.862Z,98300.66
2023-07-08T13:53:52.046Z,98304.19
2023-07-08T13:56:03.084Z,98309.09
2023-07-08T13:58:11.531Z,98301.13
2023-07-08T14:00:15.884Z,98302.75
2023-07-08T14:02:23.418Z,98303.13
2023-07-08T14:04:35.417Z,98311.47
2023-07-08T14:06:40.637Z,98308.16
2023-07-08T14:08:43.753Z,98303.34
2023-07-08T14:10:45.927Z,98293.00
2023-07-08T14:12:49.003Z,98289.34
2023-07-08T14:14:52.497Z,98292.06
2023-07-08T14:16:56.936Z,98289.72
2023-07-08T14:19:04.595Z,98291.44
2023-07-08T14:21:07.664Z,98298.84
2023-07-08T14:23:12.108Z,98297.78
2023-07-08T14:25:16.545Z,98296.38
2023-07-08T14:27:20.234Z,98293.41
2023-07-08T14:29:23.568Z,98295.06
2023-07-08T14:31:27.963Z,98290.72
2023-07-08T14:33:31.279Z,98291.75
2023-07-08T14:35:35.757Z,98297.19
2023-07-08T14:37:39.024Z,98284.50
2023-07-08T14:39:42.205Z,98281.41
2023-07-08T14:41:46.691Z,98287.13
2023-07-08T14:43:49.790Z,98278.53
2023-07-08T14:45:56.000Z,98281.34
2023-07-08T14:47:59.155Z,98282.50
2023-07-08T14:50:02.612Z,98284.97
2023-07-08T14:52:08.361Z,98285.53
2023-07-08T14:54:11.471Z,98278.34
2023-07-08T14:56:17.370Z,98277.38
2023-07-08T14:58:24.250Z,98281.94
2023-07-08T15:00:27.364Z,98279.72
2023-07-08T15:02:30.434Z,98283.75
2023-07-08T15:04:33.618Z,98286.72
2023-07-08T15:06:36.671Z,98284.56
2023-07-08T15:08:41.193Z,98277.75
2023-07-08T15:10:48.344Z,98271.13
2023-07-08T15:12:51.738Z,98280.78
2023-07-08T15:14:54.819Z,98282.03
2023-07-08T15:16:57.957Z,98269.84
2023-07-08T15:19:01.157Z,98280.06
2023-07-08T15:21:04.785Z,98267.25
2023-07-08T15:23:09.043Z,98267.34
2023-07-08T15:25:15.195Z,98265.16
2023-07-08T15:27:21.044Z,98266.97
2023-07-08T15:29:25.647Z,98277.53
2023-07-08T15:31:30.743Z,98263.28
2023-07-08T15:33:33.876Z,98265.59
2023-07-08T15:35:37.007Z,98264.97
2023-07-08T15:37:40.260Z,98270.69
2023-07-08T15:39:43.532Z,98265.53
2023-07-08T15:41:48.009Z,98263.06
2023-07-08T15:43:51.451Z,98264.97
2023-07-08T15:45:55.273Z,98269.56
2023-07-08T15:47:58.838Z,98256.84
2023-07-08T15:50:01.990Z,98264.47
2023-07-08T15:52:06.524Z,98266.69
2023-07-08T15:54:09.671Z,98269.16
2023-07-08T15:56:14.648Z,98266.44
2023-07-08T15:58:27.401Z,98261.03
2023-07-08T16:00:33.455Z,98263.97
2023-07-08T16:02:38.133Z,98253.16
2023-07-08T16:04:41.354Z,98255.38
2023-07-08T16:06:44.499Z,98254.66
2023-07-08T16:08:48.026Z,98258.41
2023-07-08T16:10:53.857Z,98252.69
2023-07-08T16:12:58.471Z,98255.31
2023-07-08T16:15:03.572Z,98253.31
2023-07-08T16:17:10.438Z,98253.44
2023-07-08T16:19:14.764Z,98250.66
2023-07-08T16:21:18.118Z,98250.34
2023-07-08T16:23:22.206Z,98254.09
2023-07-08T16:25:30.378Z,98248.03
2023-07-08T16:27:33.554Z,98246.38
2023-07-08T16:29:36.666Z,98249.56
2023-07-08T16:31:41.204Z,98258.97
2023-07-08T16:33:44.468Z,98251.06
2023-07-08T16:35:47.618Z,98258.59
2023-07-08T16:37:52.125Z,98255.31
2023-07-08T16:39:56.836Z,98253.69
2023-07-08T16:41:59.900Z,98252.25
2023-07-08T16:44:03.218Z,98252.25
2023-07-08T16:46:06.447Z,98252.50
2023-07-08T16:48:11.096Z,98248.75
2023-07-08T16:50:15.096Z,98246.53
2023-07-08T16:52:19.121Z,98246.53
2023-07-08T16:54:25.233Z,98244.88
2023-07-08T16:56:28.378Z,98243.25
2023-07-08T16:58:31.566Z,98241.59
2023-07-08T17:00:34.941Z,98241.03
2023-07-08T17:02:38.337Z,98239.94
2023-07-08T17:04:43.126Z,98235.63
2023-07-08T17:06:47.019Z,98231.50
2023-07-08T17:08:50.403Z,98229.88
2023-07-08T17:10:54.800Z,98225.28
2023-07-08T17:12:57.892Z,98233.41
2023-07-08T17:15:00.958Z,98230.13
2023-07-08T17:17:05.105Z,98230.59
2023-07-08T17:19:08.203Z,98223.78
2023-07-08T17:21:15.645Z,98220.75
2023-07-08T17:23:20.245Z,98226.63
2023-07-08T17:25:25.516Z,98223.31
2023-07-08T17:27:28.499Z,98231.66
2023-07-08T17:29:31.626Z,98231.09
2023-07-08T17:31:47.179Z,98221.56
2023-07-08T17:33:57.028Z,98235.56
2023-07-08T17:36:00.206Z,98230.25
2023-07-08T17:38:04.629Z,98234.84
2023-07-08T17:40:14.778Z,98239.66
2023-07-08T17:42:17.868Z,98241.78
2023-07-08T17:44:21.474Z,98234.41
2023-07-08T17:46:27.379Z,98241.59
2023-07-08T17:48:30.719Z,98248.50
2023-07-08T17:50:33.858Z,98258.75
2023-07-08T17:52:36.996Z,98253.56
2023-07-08T17:54:41.454Z,98254.84
2023-07-08T17:56:47.477Z,98249.34
2023-07-08T17:58:51.763Z,98254.38
2023-07-08T18:00:54.900Z,98262.38
2023-07-08T18:02:58.607Z,98266.59
2023-07-08T18:05:01.652Z,98261.91
2023-07-08T18:07:05.130Z,98261.56
2023-07-08T18:09:07.686Z,98270.09
2023-07-08T18:11:13.983Z,98263.31
2023-07-08T18:13:20.870Z,98271.88
2023-07-08T18:15:26.177Z,98275.03
2023-07-08T18:17:29.369Z,98271.13
2023-07-08T18:19:32.473Z,98272.66
2023-07-08T18:21:35.637Z,98277.94
2023-07-08T18:23:40.095Z,98277.59
2023-07-08T18:25:43.244Z,98276.16
2023-07-08T18:27:48.445Z,98284.16
2023-07-08T18:29:51.545Z,98283.56
2023-07-08T18:31:54.770Z,98282.59
2023-07-08T18:33:57.981Z,98292.19
2023-07-08T18:36:01.385Z,98291.25
2023-07-08T18:38:04.696Z,98290.25
2023-07-08T18:40:10.083Z,98298.47
2023-07-08T18:42:13.283Z,98289.84
2023-07-08T18:44:26.438Z,98298.28
2023-07-08T18:46:29.466Z,98298.97
2023-07-08T18:48:32.560Z,98299.88
2023-07-08T18:50:36.164Z,98300.56
2023-07-08T18:52:38.658Z,98303.34
2023-07-08T18:54:41.736Z,98305.84
2023-07-08T18:56:45.060Z,98304.03
2023-07-08T18:58:48.682Z,98297.47
2023-07-08T19:00:53.600Z,98299.41
2023-07-08T19:03:00.119Z,98293.31
2023-07-08T19:05:02.392Z,98296.06
2023-07-08T19:07:07.309Z,98296.38
2023-07-08T19:09:10.766Z,98300.75
2023-07-08T19:11:18.708Z,98302.72
2023-07-08T19:13:23.410Z,98302.16
2023-07-08T19:15:28.688Z,98305.13
2023-07-08T19:17:33.189Z,98300.84
2023-07-08T19:19:36.602Z,98302.78
2023-07-08T19:21:40.459Z,98299.34
2023-07-08T19:23:46.680Z,98300.44
2023-07-08T19:25:50.050Z,98298.03
2023-07-08T19:27:54.180Z,98299.91
2023-07-08T19:29:57.393Z,98303.47
2023-07-08T19:32:00.593Z,98307.25
2023-07-08T19:34:06.945Z,98305.06
2023-07-08T19:36:10.538Z,98306.59
2023-07-08T19:38:16.068Z,98310.34
2023-07-08T19:40:22.081Z,98304.63
2023-07-08T19:42:26.946Z,98314.56
2023-07-08T19:44:30.148Z,98305.09
2023-07-08T19:46:32.493Z,98308.88
2023-07-08T19:48:36.065Z,98309.50
2023-07-08T19:50:40.923Z,98313.25
2023-07-08T19:52:44.510Z,98316.00
2023-07-08T19:54:47.616Z,98322.41
2023-07-08T19:56:50.703Z,98330.09
2023-07-08T19:58:53.803Z,98334.66
2023-07-08T20:00:56.911Z,98332.56
2023-07-08T20:03:00.698Z,98341.66
2023-07-08T20:05:03.848Z,98344.00
2023-07-08T20:07:13.320Z,98346.06
2023-07-08T20:09:16.823Z,98344.63
2023-07-08T20:11:19.474Z,98352.06
2023-07-08T20:13:23.095Z,98361.34
2023-07-08T20:15:27.598Z,98353.69
2023-07-08T20:17:30.716Z,98356.38
2023-07-08T20:19:33.921Z,98366.50
2023-07-08T20:21:37.033Z,98361.53
2023-07-08T20:23:41.755Z,98366.91
2023-07-08T20:25:46.280Z,98361.94
2023-07-08T20:27:50.127Z,98359.22
2023-07-08T20:29:53.191Z,98365.38
2023-07-08T20:31:56.293Z,98367.25
2023-07-08T20:33:59.689Z,98371.75
2023-07-08T20:36:03.111Z,98369.06
2023-07-08T20:38:07.238Z,98375.41
2023-07-08T20:40:20.937Z,98380.75
2023-07-08T20:42:24.035Z,98376.22
2023-07-08T20:44:27.083Z,98382.38
2023-07-08T20:46:30.618Z,98385.00
2023-07-08T20:48:33.758Z,98381.47
2023-07-08T20:50:36.906Z,98383.91
2023-07-08T20:52:40.005Z,98389.84
2023-07-08T20:54:43.082Z,98386.31
2023-07-08T20:56:47.598Z,98384.22
2023-07-08T20:58:50.656Z,98394.69
2023-07-08T21:00:54.432Z,98391.75
2023-07-08T21:02:58.472Z,98397.72
2023-07-08T21:05:02.492Z,98400.16
2023-07-08T21:07:06.248Z,98398.91
2023-07-08T21:09:12.256Z,98395.78
2023-07-08T21:11:15.388Z,98402.56
2023-07-08T21:13:20.295Z,98402.31
2023-07-08T21:15:35.029Z,98405.38
2023-07-08T21:17:40.204Z,98406.97
2023-07-08T21:19:43.510Z,98404.88
2023-07-08T21:21:46.576Z,98401.91
2023-07-08T21:23:50.139Z,98407.03
2023-07-08T21:25:54.682Z,98406.78
2023-07-08T21:27:57.757Z,98414.59
2023-07-08T21:30:02.262Z,98413.50
2023-07-08T21:32:06.069Z,98416.13
2023-07-08T21:34:10.046Z,98407.81
2023-07-08T21:36:23.391Z,98410.25
2023-07-08T21:38:27.565Z,98416.16
2023-07-08T21:40:35.757Z,98413.06
2023-07-08T21:42:38.835Z,98414.44
2023-07-08T21:44:42.026Z,98415.84
2023-07-08T21:46:46.923Z,98417.22
2023-07-08T21:48:50.294Z,98419.84
2023-07-08T21:50:55.746Z,98414.19
2023-07-08T21:53:01.527Z,98421.78
2023-07-08T21:55:06.417Z,98426.88
2023-07-08T21:57:14.901Z,98426.22
2023-07-08T21:59:19.213Z,98432.16
2023-07-08T22:01:24.647Z,98435.38
2023-07-08T22:03:29.905Z,98439.44
2023-07-08T22:05:33.069Z,98432.16
2023-07-08T22:07:36.648Z,98428.75
2023-07-08T22:09:40.450Z,98423.34
2023-07-08T22:11:47.452Z,98427.38
2023-07-08T22:13:50.838Z,98429.22
2023-07-08T22:15:54.979Z,98438.06
2023-07-08T22:18:00.124Z,98438.22
2023-07-08T22:20:07.299Z,98437.41
2023-07-08T22:22:11.850Z,98429.75
2023-07-08T22:24:14.930Z,98431.16
2023-07-08T22:26:18.254Z,98433.28
2023-07-08T22:28:21.821Z,98422.97
2023-07-08T22:30:25.329Z,98436.06
2023-07-08T22:32:28.623Z,98438.22
2023-07-08T22:34:31.732Z,98442.13
2023-07-08T22:36:36.722Z,98438.78
2023-07-08T22:38:39.774Z,98441.81
2023-07-08T22:40:44.204Z,98442.75
2023-07-08T22:42:46.303Z,98438.97
2023-07-08T22:44:49.385Z,98438.50
2023-07-08T22:46:52.465Z,98436.22
2023-07-08T22:48:58.776Z,98435.38
2023-07-08T22:51:02.986Z,98440.69
2023-07-08T22:53:09.844Z,98436.41
2023-07-08T22:55:15.760Z,98441.25
2023-07-08T22:57:18.775Z,98444.44
2023-07-08T22:59:21.927Z,98434.47
2023-07-08T23:01:24.997Z,98450.19
2023-07-08T23:03:28.286Z,98445.75
2023-07-08T23:05:39.911Z,98448.97
2023-07-08T23:07:43.413Z,98441.69
2023-07-08T23:09:47.923Z,98446.75
2023-07-08T23:11:50.120Z,98443.44
2023-07-08T23:13:53.363Z,98442.13
2023-07-08T23:15:57.146Z,98447.00
2023-07-08T23:18:00.439Z,98447.34
2023-07-08T23:20:03.805Z,98450.00
2023-07-08T23:22:09.936Z,98445.38
2023-07-08T23:24:13.159Z,98446.75
2023-07-08T23:26:19.373Z,98454.28
2023-07-08T23:28:22.455Z,98452.13
2023-07-08T23:30:25.748Z,98453.47
2023-07-08T23:32:28.888Z,98453.81
2023-07-08T23:34:32.025Z,98455.00
2023-07-08T23:36:37.768Z,98457.00
2023-07-08T23:38:40.779Z,98466.00
2023-07-08T23:40:44.608Z,98460.00
2023-07-08T23:42:49.029Z,98463.38
2023-07-08T23:44:51.215Z,98459.44
2023-07-08T23:46:56.801Z,98471.91
2023-07-08T23:49:02.636Z,98472.91
2023-07-08T23:51:05.646Z,98469.75
2023-07-08T23:53:09.637Z,98459.31
2023-07-08T23:55:13.673Z,98467.81
2023-07-08T23:57:18.897Z,98456.38
2023-07-08T23:59:24.317Z,98459.56
